Time;durP1;ratioP1;P1;durP2;ratioP2;P2;SDS_P1;SDS_P2;PMS_P1;PMS_P2;Temp;Humidity;BMP_temperature;BMP_pressure;BME280_temperature;BME280_humidity;BME280_pressure;Samples;Min_cycle;Max_cycle;Signal;HPM_P1;HPM_P2
2022/11/24 00:00:51;;;;;;;0.10;0.10;;;;;;;;;;4993667;28;20123;-87
2022/11/24 00:03:19;;;;;;;0.10;0.10;;;7.40;99.90;;;;;;5007291;28;20049;-87
2022/11/24 00:05:46;;;;;;;0.10;0.10;;;7.30;99.90;;;;;;5014492;28;20414;-87
2022/11/24 00:08:13;;;;;;;0.10;0.10;;;;;;;;;;5013644;28;20208;-87
2022/11/24 00:10:41;;;;;;;0.10;0.10;;;;;;;;;;4996696;28;20068;-88
2022/11/24 00:13:08;;;;;;;0.10;0.10;;;;;;;;;;5015423;28;20076;-87
2022/11/24 00:15:35;;;;;;;0.10;0.10;;;;;;;;;;5011904;28;20054;-87
2022/11/24 00:18:02;;;;;;;0.10;0.10;;;7.50;99.90;;;;;;5005211;28;20046;-87
2022/11/24 00:20:30;;;;;;;0.10;0.10;;;9.00;99.90;;;;;;5007012;28;20076;-87
2022/11/24 00:22:57;;;;;;;0.10;0.10;;;8.80;99.90;;;;;;4998360;28;20121;-88
2022/11/24 00:25:24;;;;;;;0.10;0.10;;;7.50;99.90;;;;;;5011635;28;20045;-88
2022/11/24 00:27:51;;;;;;;0.10;0.10;;;7.50;99.90;;;;;;4996974;28;20501;-87
2022/11/24 00:30:18;;;;;;;0.10;0.10;;;;;;;;;;4992994;28;20052;-88
2022/11/24 00:32:46;;;;;;;0.10;0.10;;;;;;;;;;4999439;28;20563;-86
2022/11/24 00:35:12;;;;;;;0.10;0.10;;;7.40;99.90;;;;;;5012388;28;20091;-88
2022/11/24 00:37:41;;;;;;;0.10;0.10;;;8.20;99.90;;;;;;4993526;28;20130;-86
2022/11/24 00:40:08;;;;;;;0.10;0.10;;;7.60;99.90;;;;;;5014036;28;20042;-88
2022/11/24 00:42:35;;;;;;;0.10;0.10;;;;;;;;;;4998373;28;20482;-88
2022/11/24 00:45:03;;;;;;;0.10;0.10;;;;;;;;;;5013882;28;20042;-87
2022/11/24 00:47:40;;;;;;;0.10;0.10;;;;;;;;;;4992361;28;20050;-86
2022/11/24 00:50:07;;;;;;;0.13;0.13;;;;;;;;;;5013333;28;20084;-88
2022/11/24 00:52:34;;;;;;;0.10;0.10;;;;;;;;;;4996030;28;20069;-87
2022/11/24 00:55:03;;;;;;;0.20;0.20;;;7.60;99.90;;;;;;5000220;28;20136;-87
2022/11/24 00:57:30;;;;;;;0.10;0.10;;;7.60;99.90;;;;;;5010856;28;20458;-88
2022/11/24 00:59:57;;;;;;;0.10;0.10;;;;;;;;;;4995910;28;20092;-88
2022/11/24 01:02:24;;;;;;;0.10;0.10;;;;;;;;;;4989472;28;20064;-87
2022/11/24 01:04:51;;;;;;;0.10;0.10;;;7.60;99.90;;;;;;4996480;28;20054;-87
2022/11/24 01:07:18;;;;;;;0.10;0.10;;;;;;;;;;4993886;28;20297;-88
2022/11/24 01:09:45;;;;;;;0.10;0.10;;;;;;;;;;4996310;28;20113;-87
2022/11/24 01:12:14;;;;;;;0.10;0.10;;;7.80;99.90;;;;;;4994223;28;20049;-88
2022/11/24 01:14:41;;;;;;;0.10;0.10;;;;;;;;;;4997080;28;20137;-87
2022/11/24 01:17:08;;;;;;;0.10;0.10;;;7.80;99.90;;;;;;5008137;28;20065;-88
2022/11/24 01:19:34;;;;;;;0.10;0.10;;;7.70;99.90;;;;;;4997574;28;20196;-87
2022/11/24 01:22:01;;;;;;;0.10;0.10;;;7.70;99.90;;;;;;5000685;28;20041;-88
2022/11/24 01:24:28;;;;;;;0.10;0.10;;;;;;;;;;5013294;28;20530;-87
2022/11/24 01:26:55;;;;;;;0.10;0.10;;;;;;;;;;4994952;28;20525;-87
2022/11/24 01:29:24;;;;;;;0.10;0.10;;;7.70;99.90;;;;;;4996801;28;20574;-87
2022/11/24 01:31:52;;;;;;;0.10;0.10;;;;;;;;;;5008895;28;20709;-87
2022/11/24 01:34:19;;;;;;;0.10;0.10;;;;;;;;;;5007719;28;20038;-87
2022/11/24 01:36:46;;;;;;;0.10;0.10;;;7.60;99.90;;;;;;4990817;28;20053;-88
2022/11/24 01:39:13;;;;;;;0.10;0.10;;;;;;;;;;4992846;28;20493;-86
2022/11/24 01:41:40;;;;;;;0.10;0.10;;;;;;;;;;4995562;28;20050;-87
2022/11/24 01:44:25;;;;;;;0.10;0.10;;;7.60;99.90;;;;;;5011762;28;20042;-87
2022/11/24 01:46:56;;;;;;;0.05;0.05;;;8.30;99.90;;;;;;5006588;28;20033;-86
2022/11/24 01:49:26;;;;;;;0.10;0.10;;;8.60;99.90;;;;;;5011260;28;20077;-88
2022/11/24 01:51:56;;;;;;;0.10;0.10;;;7.50;99.90;;;;;;5006831;28;20073;-86
2022/11/24 01:54:26;;;;;;;;;;;7.50;99.90;;;;;;4992385;28;20047;-87
2022/11/24 01:56:57;;;;;;;0.10;0.10;;;7.50;99.90;;;;;;5009780;28;20544;-87
2022/11/24 01:59:26;;;;;;;0.10;0.10;;;7.30;99.90;;;;;;5000586;28;20074;-87
2022/11/24 02:01:54;;;;;;;0.10;0.10;;;7.30;99.90;;;;;;4989809;28;20080;-88
2022/11/24 02:04:25;;;;;;;0.10;0.10;;;7.30;99.90;;;;;;4990371;28;20126;-87
2022/11/24 02:06:55;;;;;;;0.10;0.10;;;7.30;99.90;;;;;;5004648;28;20107;-88
2022/11/24 02:09:25;;;;;;;0.10;0.10;;;7.30;99.90;;;;;;5010775;28;20578;-87
2022/11/24 02:11:53;;;;;;;0.10;0.10;;;7.30;99.90;;;;;;4991125;28;20589;-87
2022/11/24 02:14:22;;;;;;;0.10;0.10;;;7.30;99.90;;;;;;5009550;28;20042;-87
2022/11/24 02:16:52;;;;;;;0.00;0.00;;;7.20;99.90;;;;;;5008307;28;20037;-87
2022/11/24 02:19:31;;;;;;;0.10;0.10;;;7.20;99.90;;;;;;4994292;28;20049;-87
2022/11/24 02:21:59;;;;;;;0.10;0.10;;;7.10;99.90;;;;;;4987375;28;20417;-85
2022/11/24 02:24:31;;;;;;;0.10;0.10;;;7.20;99.90;;;;;;5007869;28;20480;-87
2022/11/24 02:27:00;;;;;;;0.10;0.10;;;7.20;99.90;;;;;;5006377;28;20049;-87
2022/11/24 02:29:27;;;;;;;0.10;0.10;;;;;;;;;;5009660;28;20081;-88
2022/11/24 02:31:59;;;;;;;0.10;0.10;;;7.20;99.90;;;;;;4990764;28;20056;-88
2022/11/24 02:34:26;;;;;;;0.10;0.10;;;;;;;;;;4988300;28;20494;-87
2022/11/24 02:36:53;;;;;;;0.10;0.10;;;;;;;;;;4988241;28;20038;-86
2022/11/24 02:39:20;;;;;;;0.10;0.10;;;;;;;;;;4992187;28;20088;-87
2022/11/24 02:41:51;;;;;;;0.10;0.10;;;7.10;99.90;;;;;;5001430;28;20057;-87
2022/11/24 02:44:22;;;;;;;0.15;0.15;;;7.10;99.90;;;;;;4991809;28;20513;-87
2022/11/24 02:47:01;;;;;;;0.10;0.10;;;7.00;99.90;;;;;;5050636;23;20028;-95
2022/11/24 02:49:29;;;;;;;0.10;0.10;;;;;;;;;;5095999;28;20037;-96
2022/11/24 02:51:57;;;;;;;0.10;0.10;;;7.00;99.90;;;;;;5092967;28;20045;-96
2022/11/24 02:54:25;;;;;;;0.10;0.10;;;;;;;;;;5095194;28;20056;-96
2022/11/24 02:56:52;;;;;;;0.10;0.10;;;;;;;;;;5092973;28;20036;-96
2022/11/24 02:59:24;;;;;;;0.10;0.10;;;7.00;99.90;;;;;;5093214;28;20363;-95
2022/11/24 03:01:51;;;;;;;0.10;0.10;;;;;;;;;;5094087;28;20032;-95
2022/11/24 03:04:20;;;;;;;0.10;0.10;;;7.00;99.90;;;;;;5093992;28;20035;-96
2022/11/24 03:06:48;;;;;;;0.10;0.10;;;;;;;;;;5099118;28;20060;-95
2022/11/24 03:09:17;;;;;;;0.10;0.10;;;;;;;;;;5096486;28;20067;-96
2022/11/24 03:11:46;;;;;;;0.10;0.10;;;7.00;99.90;;;;;;5101744;28;20059;-96
2022/11/24 03:14:14;;;;;;;0.10;0.10;;;;;;;;;;5093146;28;20032;-93
2022/11/24 03:16:43;;;;;;;0.10;0.10;;;6.90;99.90;;;;;;5094099;28;20032;-95
2022/11/24 03:19:11;;;;;;;0.10;0.10;;;6.90;99.90;;;;;;5101885;28;20061;-94
2022/11/24 03:21:39;;;;;;;0.10;0.10;;;;;;;;;;5099488;28;20286;-90
2022/11/24 03:24:07;;;;;;;0.10;0.10;;;;;;;;;;5100798;28;20024;-96
2022/11/24 03:26:34;;;;;;;0.10;0.10;;;6.90;99.90;;;;;;5106652;28;20028;-96
2022/11/24 03:29:03;;;;;;;0.10;0.10;;;;;;;;;;5093253;28;20377;-96
2022/11/24 03:31:31;;;;;;;0.10;0.10;;;6.90;99.90;;;;;;5093808;28;20028;-95
2022/11/24 03:34:00;;;;;;;0.10;0.10;;;6.90;99.90;;;;;;5096412;28;20036;-93
2022/11/24 03:36:28;;;;;;;0.10;0.10;;;;;;;;;;5099325;28;20049;-96
2022/11/24 03:39:09;;;;;;;0.10;0.10;;;;;;;;;;5096254;28;20031;-96
2022/11/24 03:41:50;;;;;;;0.10;0.10;;;;;;;;;;5099119;28;20024;-96
2022/11/24 03:44:18;;;;;;;0.10;0.10;;;;;;;;;;5098788;28;20047;-96
2022/11/24 03:46:46;;;;;;;0.10;0.10;;;;;;;;;;5095309;28;20033;-95
2022/11/24 03:49:19;;;;;;;0.10;0.10;;;6.90;99.90;;;;;;5104198;28;20050;-96
2022/11/24 03:51:48;;;;;;;0.03;0.03;;;;;;;;;;5102137;28;20036;-95
2022/11/24 03:54:16;;;;;;;0.10;0.10;;;;;;;;;;5093276;28;20025;-96
2022/11/24 03:56:46;;;;;;;0.10;0.10;;;6.80;99.90;;;;;;5097280;28;20063;-95
2022/11/24 03:59:13;;;;;;;0.10;0.10;;;;;;;;;;5097093;28;20020;-96
2022/11/24 04:01:43;;;;;;;0.10;0.10;;;;;;;;;;5098299;28;20074;-95
2022/11/24 04:04:12;;;;;;;0.10;0.10;;;6.90;99.90;;;;;;5101666;28;20027;-96
2022/11/24 04:06:45;;;;;;;0.10;0.10;;;7.00;99.90;;;;;;5112507;28;20025;-96
2022/11/24 04:09:12;;;;;;;0.10;0.10;;;;;;;;;;5096098;28;20025;-96
2022/11/24 04:33:23;;;;;;;0.10;0.10;;;7.00;99.90;;;;;;5050601;28;20139;-87
2022/11/24 04:35:52;;;;;;;0.10;0.10;;;6.90;99.90;;;;;;5032883;28;20151;-87
2022/11/24 04:38:19;;;;;;;0.10;0.10;;;6.90;99.90;;;;;;5051261;28;20069;-86
2022/11/24 04:41:06;;;;;;;0.10;0.10;;;;;;;;;;5043855;28;20056;-84
2022/11/24 05:10:34;;;;;;;0.10;0.10;;;7.20;99.90;;;;;;5026669;28;20053;-84
2022/11/24 05:13:02;;;;;;;0.10;0.10;;;7.30;99.90;;;;;;5014327;28;20480;-85
2022/11/24 05:15:29;;;;;;;0.10;0.10;;;;;;;;;;5027896;28;20034;-88
2022/11/24 05:17:56;;;;;;;0.10;0.10;;;7.40;99.90;;;;;;5029589;28;20525;-85
2022/11/24 05:20:24;;;;;;;0.10;0.10;;;7.50;99.90;;;;;;5028629;28;20124;-88
2022/11/24 05:22:51;;;;;;;0.10;0.10;;;7.50;99.90;;;;;;5030612;28;20045;-87
2022/11/24 05:25:17;;;;;;;0.10;0.10;;;7.60;99.90;;;;;;5010498;28;20092;-87
2022/11/24 05:27:46;;;;;;;0.10;0.10;;;7.60;99.90;;;;;;5012655;28;20128;-87
2022/11/24 05:30:13;;;;;;;0.10;0.10;;;7.60;99.90;;;;;;5028282;28;20687;-88
2022/11/24 05:32:40;;;;;;;0.10;0.10;;;;;;;;;;5013783;28;20160;-88
2022/11/24 05:35:08;;;;;;;0.10;0.10;;;7.70;99.90;;;;;;5010808;28;20049;-88
2022/11/24 05:37:35;;;;;;;0.10;0.10;;;;;;;;;;5030948;28;20095;-88
2022/11/24 05:40:04;;;;;;;0.10;0.10;;;7.60;99.90;;;;;;5022367;28;20697;-88
2022/11/24 05:42:40;;;;;;;0.10;0.10;;;;;;;;;;5028657;28;20091;-88
2022/11/24 05:45:17;;;;;;;0.10;0.10;;;7.60;99.90;;;;;;5027758;28;20037;-88
2022/11/24 05:47:44;;;;;;;0.10;0.10;;;8.40;99.90;;;;;;5031499;28;20053;-88
2022/11/24 05:50:14;;;;;;;0.10;0.10;;;7.60;99.90;;;;;;5029447;28;20041;-88
2022/11/24 05:52:41;;;;;;;0.10;0.10;;;;;;;;;;5010784;28;20512;-88
2022/11/24 05:55:09;;;;;;;0.10;0.10;;;7.70;99.90;;;;;;5013923;28;20104;-88
2022/11/24 05:57:37;;;;;;;0.10;0.10;;;;;;;;;;5026530;28;20049;-87
2022/11/24 06:00:05;;;;;;;0.10;0.10;;;7.70;99.90;;;;;;5008692;28;20516;-88
2022/11/24 06:02:33;;;;;;;0.10;0.10;;;7.80;99.90;;;;;;5026317;28;21345;-86
2022/11/24 06:05:01;;;;;;;0.10;0.10;;;7.70;99.90;;;;;;5017082;28;20037;-88
2022/11/24 06:07:28;;;;;;;0.10;0.10;;;;;;;;;;5031573;28;20049;-87
2022/11/24 06:09:55;;;;;;;0.10;0.10;;;;;;;;;;5028570;28;20049;-89
2022/11/24 06:12:22;;;;;;;0.10;0.10;;;;;;;;;;5028546;28;20046;-87
2022/11/24 06:14:49;;;;;;;0.10;0.10;;;;;;;;;;5031293;28;20041;-86
2022/11/24 06:17:16;;;;;;;0.10;0.10;;;;;;;;;;5030514;28;20080;-87
2022/11/24 06:19:48;;;;;;;0.10;0.10;;;7.70;99.90;;;;;;5026503;28;20081;-87
2022/11/24 06:22:17;;;;;;;0.10;0.10;;;;;;;;;;5006173;28;20463;-88
2022/11/24 06:24:45;;;;;;;0.10;0.10;;;;;;;;;;5022402;28;20080;-86
2022/11/24 06:27:12;;;;;;;0.10;0.10;;;;;;;;;;5002705;28;20053;-88
2022/11/24 06:29:39;;;;;;;0.10;0.10;;;;;;;;;;5027151;28;20520;-87
2022/11/24 06:32:06;;;;;;;0.10;0.10;;;;;;;;;;5011652;28;20482;-87
2022/11/24 06:34:34;;;;;;;0.10;0.10;;;;;;;;;;5022147;28;20049;-87
2022/11/24 06:37:02;;;;;;;0.10;0.10;;;7.70;99.90;;;;;;5030984;28;20416;-87
2022/11/24 06:39:30;;;;;;;0.10;0.10;;;;;;;;;;5028295;28;20087;-87
2022/11/24 06:41:57;;;;;;;0.10;0.10;;;7.70;99.90;;;;;;5033355;28;20053;-88
2022/11/24 06:44:24;;;;;;;0.10;0.10;;;;;;;;;;5013117;28;20071;-86
2022/11/24 06:46:52;;;;;;;0.10;0.10;;;;;;;;;;5032404;28;20079;-87
2022/11/24 06:49:19;;;;;;;0.10;0.10;;;;;;;;;;5027054;28;20045;-88
2022/11/24 06:51:46;;;;;;;0.10;0.10;;;;;;;;;;5014976;28;20048;-86
2022/11/24 06:54:16;;;;;;;0.10;0.10;;;7.80;99.90;;;;;;5036608;28;20064;-88
2022/11/24 06:56:43;;;;;;;;;;;7.80;99.90;;;;;;5038482;28;20037;-87
2022/11/24 06:59:16;;;;;;;0.10;0.10;;;7.90;99.90;;;;;;5014640;28;19921;-88
2022/11/24 07:01:43;;;;;;;0.10;0.10;;;;;;;;;;5013206;28;20077;-87
2022/11/24 07:04:10;;;;;;;0.10;0.10;;;;;;;;;;5016416;28;20045;-88
2022/11/24 07:06:40;;;;;;;0.10;0.10;;;;;;;;;;5018300;28;20168;-86
2022/11/24 07:09:08;;;;;;;0.10;0.10;;;7.90;99.90;;;;;;5029584;28;20069;-87
2022/11/24 07:11:36;;;;;;;0.10;0.10;;;7.80;99.90;;;;;;5036209;28;20472;-87
2022/11/24 07:14:04;;;;;;;0.10;0.10;;;;;;;;;;5034354;28;20571;-87
2022/11/24 07:16:31;;;;;;;0.10;0.10;;;;;;;;;;5032964;28;20116;-87
2022/11/24 07:18:59;;;;;;;0.10;0.10;;;7.90;99.90;;;;;;5035045;28;20084;-87
2022/11/24 07:21:27;;;;;;;0.10;0.10;;;7.90;99.90;;;;;;5034650;28;20057;-87
2022/11/24 07:23:55;;;;;;;0.00;0.00;;;7.90;99.90;;;;;;5035448;28;20053;-87
2022/11/24 07:26:23;;;;;;;0.10;0.10;;;;;;;;;;5000182;28;20049;-88
2022/11/24 07:28:51;;;;;;;0.10;0.10;;;7.90;99.90;;;;;;5032915;28;20065;-87
2022/11/24 07:31:19;;;;;;;0.10;0.10;;;7.90;99.90;;;;;;5015660;28;20091;-87
2022/11/24 07:33:48;;;;;;;0.10;0.10;;;7.90;99.90;;;;;;5033701;28;20052;-88
2022/11/24 07:36:15;;;;;;;0.10;0.10;;;;;;;;;;5017564;28;20073;-87
2022/11/24 07:38:42;;;;;;;0.10;0.10;;;;;;;;;;5032402;28;20453;-88
2022/11/24 07:41:11;;;;;;;0.10;0.10;;;7.80;99.90;;;;;;5017685;28;20045;-88
2022/11/24 07:43:38;;;;;;;0.10;0.10;;;7.80;99.90;;;;;;5034496;28;20049;-87
2022/11/24 07:46:10;;;;;;;0.10;0.10;;;7.80;99.90;;;;;;5016282;28;20025;-88
2022/11/24 07:48:37;;;;;;;0.10;0.10;;;7.90;99.90;;;;;;5032789;28;20053;-87
2022/11/24 07:51:05;;;;;;;0.10;0.10;;;7.90;99.90;;;;;;5029814;28;20038;-87
2022/11/24 07:53:33;;;;;;;0.10;0.10;;;8.00;99.90;;;;;;5030273;28;20110;-87
2022/11/24 07:56:01;;;;;;;0.10;0.10;;;8.00;99.90;;;;;;5011603;28;20050;-87
2022/11/24 07:58:30;;;;;;;0.10;0.10;;;8.00;99.90;;;;;;5033976;28;20123;-87
2022/11/24 08:00:59;;;;;;;0.10;0.10;;;8.00;99.90;;;;;;5033898;28;20037;-87
2022/11/24 08:03:27;;;;;;;0.10;0.10;;;8.00;99.90;;;;;;5034141;28;20100;-87
2022/11/24 08:05:55;;;;;;;0.10;0.10;;;;;;;;;;5033932;28;20048;-87
2022/11/24 08:08:42;;;;;;;0.10;0.10;;;;;;;;;;5019525;28;20045;-86
2022/11/24 08:11:11;;;;;;;0.10;0.10;;;8.10;99.90;;;;;;5035025;28;20121;-87
2022/11/24 08:13:38;;;;;;;0.10;0.10;;;;;;;;;;5012838;28;20080;-86
2022/11/24 08:16:07;;;;;;;0.00;0.00;;;8.10;99.90;;;;;;5018026;28;20073;-87
2022/11/24 08:18:37;;;;;;;0.10;0.10;;;8.00;99.90;;;;;;5015521;28;20073;-87
2022/11/24 08:21:05;;;;;;;0.10;0.10;;;8.10;99.90;;;;;;5033268;28;20285;-87
2022/11/24 08:23:33;;;;;;;0.10;0.10;;;8.00;99.90;;;;;;5030264;28;20103;-87
2022/11/24 08:26:03;;;;;;;0.10;0.10;;;8.00;99.90;;;;;;5027138;28;20091;-88
2022/11/24 08:28:30;;;;;;;;;;;7.90;99.90;;;;;;5015366;28;20084;-87
2022/11/24 08:31:01;;;;;;;0.10;0.10;;;7.90;99.90;;;;;;5032012;28;19921;-87
2022/11/24 08:33:29;;;;;;;0.10;0.10;;;;;;;;;;5033176;28;20042;-88
2022/11/24 08:36:01;;;;;;;0.10;0.10;;;8.00;99.90;;;;;;5029112;28;20041;-87
2022/11/24 08:38:28;;;;;;;0.10;0.10;;;;;;;;;;5032459;28;20055;-87
2022/11/24 08:40:59;;;;;;;0.10;0.10;;;8.00;99.90;;;;;;5032798;28;20129;-88
2022/11/24 08:43:26;;;;;;;0.10;0.10;;;8.00;99.90;;;;;;5030876;28;20166;-86
2022/11/24 08:45:53;;;;;;;0.10;0.10;;;8.00;99.90;;;;;;5025939;28;20529;-87
2022/11/24 08:48:20;;;;;;;0.10;0.10;;;;;;;;;;5034408;28;20046;-87
2022/11/24 08:50:47;;;;;;;0.10;0.10;;;8.00;99.90;;;;;;5034078;28;20048;-87
2022/11/24 08:53:15;;;;;;;0.10;0.10;;;8.10;99.90;;;;;;5033099;28;20044;-87
2022/11/24 08:55:42;;;;;;;0.10;0.10;;;;;;;;;;5017736;28;20396;-85
2022/11/24 08:58:09;;;;;;;0.10;0.10;;;;;;;;;;5033357;28;20591;-87
2022/11/24 09:00:37;;;;;;;0.10;0.10;;;;;;;;;;5014001;28;20068;-87
2022/11/24 09:03:04;;;;;;;0.10;0.10;;;;;;;;;;5022445;28;20565;-87
2022/11/24 09:05:32;;;;;;;0.10;0.10;;;8.30;99.90;;;;;;5031636;28;20045;-87
2022/11/24 09:08:20;;;;;;;0.10;0.10;;;8.40;99.90;;;;;;5013689;28;20045;-87
2022/11/24 09:10:47;;;;;;;0.00;0.00;;;;;;;;;;5009079;28;20077;-88
2022/11/24 09:13:14;;;;;;;0.10;0.10;;;8.40;99.90;;;;;;5015801;28;20065;-87
2022/11/24 09:15:41;;;;;;;0.10;0.10;;;;;;;;;;5024778;28;20041;-87
2022/11/24 09:18:08;;;;;;;0.10;0.10;;;8.50;99.90;;;;;;5014444;28;20033;-87
2022/11/24 09:20:35;;;;;;;0.10;0.10;;;;;;;;;;5011419;28;20037;-89
2022/11/24 09:23:02;;;;;;;0.10;0.10;;;;;;;;;;5025919;28;20101;-87
2022/11/24 09:25:30;;;;;;;0.10;0.10;;;8.80;99.90;;;;;;5027580;28;20033;-87
2022/11/24 09:27:58;;;;;;;0.10;0.10;;;;;;;;;;5022871;28;20835;-86
2022/11/24 09:30:25;;;;;;;0.03;0.03;;;8.80;99.90;;;;;;5026783;28;20044;-87
2022/11/24 09:32:54;;;;;;;0.10;0.10;;;8.90;99.90;;;;;;5025909;28;20077;-86
2022/11/24 09:35:21;;;;;;;0.10;0.10;;;;;;;;;;5003994;28;20124;-87
2022/11/24 09:37:48;;;;;;;0.10;0.10;;;;;;;;;;5018659;28;20128;-87
2022/11/24 09:40:16;;;;;;;0.10;0.10;;;8.90;99.90;;;;;;5012941;28;20049;-87
2022/11/24 09:42:54;;;;;;;0.10;0.10;;;10.70;99.90;;;;;;5006755;28;20077;-86
2022/11/24 09:45:31;;;;;;;0.10;0.10;;;9.00;99.90;;;;;;5026908;28;20523;-87
2022/11/24 09:48:25;;;;;;;0.10;0.10;;;9.10;99.90;;;;;;5024178;28;20053;-87
2022/11/24 09:50:53;;;;;;;0.10;0.10;;;;;;;;;;5034613;28;20132;-85
2022/11/24 09:53:28;;;;;;;0.10;0.10;;;9.30;99.90;;;;;;5029702;28;20073;-88
2022/11/24 09:55:57;;;;;;;0.03;0.03;;;9.30;99.90;;;;;;5029532;28;20448;-88
2022/11/24 09:58:35;;;;;;;0.10;0.10;;;9.40;99.90;;;;;;5014387;28;20045;-87
2022/11/24 10:01:10;;;;;;;0.05;0.05;;;9.50;99.90;;;;;;5006699;28;20099;-87
2022/11/24 10:03:42;;;;;;;0.10;0.10;;;9.60;99.90;;;;;;5024565;28;20098;-87
2022/11/24 10:06:20;;;;;;;0.10;0.10;;;11.30;99.90;;;;;;5009862;28;20099;-87
2022/11/24 10:09:20;;;;;;;0.10;0.10;;;9.60;99.90;;;;;;5027238;28;20041;-87
2022/11/24 10:11:57;;;;;;;0.10;0.10;;;9.60;99.90;;;;;;5006289;28;20057;-87
2022/11/24 10:15:00;;;;;;;0.10;0.10;;;9.60;99.90;;;;;;5027364;28;20049;-88
2022/11/24 10:17:41;;;;;;;0.10;0.10;;;9.60;99.90;;;;;;5013116;28;20405;-87
2022/11/24 10:20:17;;;;;;;0.10;0.10;;;9.70;99.90;;;;;;5030433;28;20041;-87
2022/11/24 10:22:50;;;;;;;0.10;0.10;;;10.20;99.90;;;;;;5012917;28;20033;-88
2022/11/24 10:25:24;;;;;;;0.00;0.00;;;9.70;99.90;;;;;;5014929;28;20041;-87
2022/11/24 10:27:56;;;;;;;0.00;0.00;;;12.00;99.90;;;;;;5029137;28;20103;-87
2022/11/24 10:30:23;;;;;;;0.10;0.10;;;;;;;;;;5024633;28;20037;-86
2022/11/24 10:32:57;;;;;;;0.10;0.10;;;9.80;99.90;;;;;;5030368;28;20051;-87
2022/11/24 10:35:29;;;;;;;0.10;0.10;;;9.90;99.90;;;;;;5026747;28;20479;-87
2022/11/24 10:38:10;;;;;;;0.00;0.00;;;10.00;99.90;;;;;;5031173;28;20064;-88
2022/11/24 10:40:40;;;;;;;0.00;0.00;;;10.00;99.90;;;;;;5015038;28;20072;-87
2022/11/24 10:43:25;;;;;;;0.10;0.10;;;9.90;99.90;;;;;;5011889;28;20053;-87
2022/11/24 10:45:53;;;;;;;0.10;0.10;;;9.90;99.90;;;;;;5031205;28;20069;-88
2022/11/24 10:48:26;;;;;;;0.00;0.00;;;10.40;99.90;;;;;;5010352;28;20049;-87
2022/11/24 10:51:04;;;;;;;0.10;0.10;;;9.80;99.90;;;;;;5028007;28;20624;-87
2022/11/24 10:53:34;;;;;;;0.10;0.10;;;9.80;99.90;;;;;;5013123;28;20548;-87
2022/11/24 10:56:04;;;;;;;0.10;0.10;;;9.70;99.90;;;;;;5030907;28;20077;-88
2022/11/24 10:58:31;;;;;;;;;;;9.80;99.90;;;;;;5028755;28;20052;-88
2022/11/24 11:01:24;;;;;;;0.00;0.00;;;9.90;99.90;;;;;;5021285;28;19929;-84
2022/11/24 11:03:55;;;;;;;0.00;0.00;;;9.90;99.90;;;;;;5029107;28;20049;-88
2022/11/24 11:06:24;;;;;;;0.10;0.10;;;8.60;99.90;;;;;;5014876;28;20501;-87
2022/11/24 11:09:16;;;;;;;0.00;0.00;;;9.90;99.90;;;;;;5031434;28;20084;-87
2022/11/24 11:11:45;;;;;;;0.10;0.10;;;9.90;99.90;;;;;;5029534;28;20037;-88
2022/11/24 11:14:27;;;;;;;0.03;0.03;;;9.90;99.90;;;;;;5031565;28;20146;-87
2022/11/24 11:16:58;;;;;;;0.10;0.10;;;9.60;99.90;;;;;;5025707;28;20073;-88
2022/11/24 11:19:36;;;;;;;0.10;0.10;;;9.60;99.90;;;;;;5028629;28;20059;-87
2022/11/24 11:22:25;;;;;;;0.10;0.10;;;9.40;99.90;;;;;;5051161;22;20068;-83
2022/11/24 11:25:04;;;;;;;0.10;0.10;;;9.50;99.90;;;;;;5014285;28;20049;-83
2022/11/24 11:27:31;;;;;;;0.10;0.10;;;;;;;;;;5013404;28;20123;-83
2022/11/24 11:30:17;;;;;;;0.10;0.10;;;9.40;99.90;;;;;;5020377;28;20077;-82
2022/11/24 11:33:04;;;;;;;0.10;0.10;;;;;;;;;;5035147;28;20048;-84
2022/11/24 11:35:53;;;;;;;0.10;0.10;;;9.30;99.90;;;;;;5046727;28;20412;-85
2022/11/24 11:38:20;;;;;;;0.10;0.10;;;;;;;;;;5052461;28;20041;-83
2022/11/24 11:40:50;;;;;;;0.00;0.00;;;9.20;99.90;;;;;;5036212;28;20098;-83
2022/11/24 11:43:24;;;;;;;0.10;0.10;;;9.20;99.90;;;;;;5037961;28;20136;-86
2022/11/24 11:46:00;;;;;;;0.10;0.10;;;9.20;99.90;;;;;;5051944;28;20124;-83
2022/11/24 11:48:31;;;;;;;0.10;0.10;;;6.40;99.90;;;;;;5037553;28;20417;-84
2022/11/24 11:51:31;;;;;;;0.10;0.10;;;9.30;99.90;;;;;;5039173;28;20042;-83
2022/11/24 11:54:04;;;;;;;0.00;0.00;;;9.40;99.90;;;;;;5053234;28;20067;-84
2022/11/24 11:56:36;;;;;;;0.10;0.10;;;9.50;99.90;;;;;;5052956;28;20075;-81
2022/11/24 11:59:35;;;;;;;0.00;0.00;;;9.20;99.90;;;;;;5052534;28;20075;-85
2022/11/24 12:02:33;;;;;;;0.10;0.10;;;9.60;99.90;;;;;;5060106;28;20128;-85
2022/11/24 12:05:05;;;;;;;0.10;0.10;;;9.60;99.90;;;;;;5006964;28;20493;-85
2022/11/24 12:07:53;;;;;;;0.10;0.10;;;9.60;99.90;;;;;;5053083;28;20045;-84
2022/11/24 12:10:28;;;;;;;0.10;0.10;;;9.60;99.90;;;;;;5033438;28;20048;-84
2022/11/24 12:13:09;;;;;;;0.10;0.10;;;9.60;99.90;;;;;;5040257;28;20048;-84
2022/11/24 12:15:39;;;;;;;0.10;0.10;;;9.60;99.90;;;;;;5055041;28;20497;-83
2022/11/24 12:18:22;;;;;;;0.00;0.00;;;9.60;99.90;;;;;;5039622;28;20045;-82
2022/11/24 12:21:16;;;;;;;0.10;0.10;;;9.70;99.90;;;;;;5038053;28;20048;-85
2022/11/24 12:24:02;;;;;;;0.08;0.08;;;9.80;99.90;;;;;;5035073;28;20103;-85
2022/11/24 12:26:38;;;;;;;0.10;0.10;;;9.80;99.90;;;;;;5049990;28;20083;-84
2022/11/24 12:29:32;;;;;;;0.10;0.10;;;9.90;99.90;;;;;;5050763;28;20084;-84
2022/11/24 12:32:10;;;;;;;0.10;0.10;;;9.90;99.90;;;;;;5036705;28;21849;-84
2022/11/24 12:34:48;;;;;;;0.10;0.10;;;9.80;99.90;;;;;;5046616;28;20102;-83
2022/11/24 12:37:29;;;;;;;0.10;0.10;;;9.90;99.90;;;;;;5031213;28;20107;-84
2022/11/24 12:40:09;;;;;;;0.00;0.00;;;10.00;99.90;;;;;;5050213;28;20083;-84
2022/11/24 12:42:45;;;;;;;0.00;0.00;;;9.90;99.90;;;;;;5051231;28;20076;-84
2022/11/24 12:45:15;;;;;;;0.00;0.00;;;9.90;99.90;;;;;;5027224;28;20053;-84
2022/11/24 12:48:03;;;;;;;0.10;0.10;;;9.90;99.90;;;;;;5044195;28;20049;-85
2022/11/24 12:50:36;;;;;;;0.00;0.00;;;9.90;99.90;;;;;;5051245;28;20513;-84
2022/11/24 12:53:07;;;;;;;0.00;0.00;;;10.40;99.90;;;;;;5050845;28;20532;-84
2022/11/24 12:55:37;;;;;;;0.00;0.00;;;9.30;99.90;;;;;;5050401;28;20053;-84
2022/11/24 12:58:10;;;;;;;0.00;0.00;;;9.90;99.90;;;;;;5035755;28;20567;-83
2022/11/24 13:00:50;;;;;;;0.00;0.00;;;9.90;99.90;;;;;;5041278;28;20087;-82
2022/11/24 13:03:29;;;;;;;0.00;0.00;;;9.90;99.90;;;;;;5046098;28;20041;-86
2022/11/24 13:06:00;;;;;;;0.00;0.00;;;9.80;99.90;;;;;;5033848;28;20121;-86
2022/11/24 13:08:27;;;;;;;0.10;0.10;;;;;;;;;;5034616;28;20080;-85
2022/11/24 13:11:30;;;;;;;0.00;0.00;;;9.90;99.90;;;;;;5045731;28;20464;-84
2022/11/24 13:13:59;;;;;;;0.00;0.00;;;9.90;99.90;;;;;;5036110;28;20486;-83
2022/11/24 13:16:26;;;;;;;0.10;0.10;;;9.80;99.90;;;;;;5033375;28;20119;-84
2022/11/24 13:19:11;;;;;;;0.10;0.10;;;9.80;99.90;;;;;;5033798;28;20044;-84
2022/11/24 13:21:59;;;;;;;0.00;0.00;;;9.90;99.90;;;;;;5045646;28;20493;-86
2022/11/24 13:24:29;;;;;;;0.00;0.00;;;9.90;99.90;;;;;;5044478;28;20049;-84
2022/11/24 13:27:26;;;;;;;0.10;0.10;;;9.80;99.90;;;;;;5032627;28;20920;-85
2022/11/24 13:29:53;;;;;;;0.05;0.05;;;;;;;;;;5033231;28;20070;-84
2022/11/24 13:33:00;;;;;;;0.10;0.10;;;9.90;99.90;;;;;;5034954;28;20128;-84
2022/11/24 13:35:28;;;;;;;0.10;0.10;;;9.90;99.90;;;;;;5030912;28;20079;-84
2022/11/24 13:37:56;;;;;;;0.10;0.10;;;;;;;;;;5051097;28;20072;-84
2022/11/24 13:40:41;;;;;;;0.08;0.08;;;9.90;99.90;;;;;;5049451;28;20090;-84
2022/11/24 13:43:29;;;;;;;0.10;0.10;;;9.90;99.90;;;;;;5030957;28;20409;-84
2022/11/24 13:45:56;;;;;;;0.10;0.10;;;9.80;99.90;;;;;;5032693;28;20051;-84
2022/11/24 13:48:56;;;;;;;0.10;0.10;;;9.80;99.90;;;;;;5036732;28;20056;-85
2022/11/24 13:51:23;;;;;;;0.10;0.10;;;9.80;99.90;;;;;;5033781;28;20171;-86
2022/11/24 13:53:53;;;;;;;0.10;0.10;;;9.80;99.90;;;;;;5050716;28;20044;-83
2022/11/24 13:56:27;;;;;;;0.00;0.00;;;10.40;99.90;;;;;;5030166;28;20042;-84
2022/11/24 13:58:57;;;;;;;0.10;0.10;;;9.60;99.90;;;;;;5052815;28;20107;-85
2022/11/24 14:01:25;;;;;;;0.10;0.10;;;9.80;99.90;;;;;;5039432;28;20489;-84
2022/11/24 14:04:05;;;;;;;0.08;0.08;;;9.80;99.90;;;;;;5038650;28;20102;-86
2022/11/24 14:06:57;;;;;;;0.10;0.10;;;9.90;99.90;;;;;;5049880;28;20036;-85
2022/11/24 14:09:38;;;;;;;0.10;0.10;;;9.90;99.90;;;;;;5034325;28;20037;-86
2022/11/24 14:12:13;;;;;;;0.10;0.10;;;12.20;99.90;;;;;;5041369;28;20114;-84
2022/11/24 14:14:43;;;;;;;0.00;0.00;;;10.00;99.90;;;;;;5031215;28;20069;-86
2022/11/24 14:17:21;;;;;;;0.00;0.00;;;10.00;99.90;;;;;;5048906;28;20086;-85
2022/11/24 14:19:50;;;;;;;0.10;0.10;;;9.90;99.90;;;;;;5035026;28;20052;-85
2022/11/24 14:22:20;;;;;;;0.00;0.00;;;9.90;99.90;;;;;;5033505;28;20041;-84
2022/11/24 14:24:57;;;;;;;0.10;0.10;;;9.90;99.90;;;;;;5031245;28;20052;-85
2022/11/24 14:27:30;;;;;;;0.00;0.00;;;9.90;99.90;;;;;;5049639;28;20056;-84
2022/11/24 14:30:00;;;;;;;0.10;0.10;;;9.90;99.90;;;;;;5052020;28;20049;-85
2022/11/24 14:32:27;;;;;;;0.10;0.10;;;;;;;;;;5035769;28;20106;-84
2022/11/24 14:34:55;;;;;;;0.00;0.00;;;;;;;;;;5050811;28;20455;-82
2022/11/24 14:37:22;;;;;;;0.00;0.00;;;10.00;99.90;;;;;;5048863;28;20129;-83
2022/11/24 14:39:50;;;;;;;0.10;0.10;;;;;;;;;;5050231;28;20496;-84
2022/11/24 14:42:19;;;;;;;0.00;0.00;;;10.00;99.90;;;;;;5052958;28;20088;-85